Aviation Digital Data Service (ADDS)

Output produced by TAFs form (1334 UTC 21 October 2014)
found at http://aviationweather.gov/adds/tafs/
 
KTEX 211120Z 2112/2212 08006KT P6SM BKN050 OVC080 
     FM211400 14004KT P6SM VCSH OVC060 
     FM211800 24008KT P6SM -SHRA OVC050 
     FM220000 VRB03KT P6SM OVC120 
     FM220700 VRB03KT P6SM BKN200